createdAt,value
2022-08-17T00:00:34.413Z,14.70
2022-08-17T00:03:17.787Z,15.00
2022-08-17T00:06:01.862Z,14.40
2022-08-17T00:08:52.951Z,14.00
2022-08-17T00:11:28.910Z,15.20
2022-08-17T00:14:03.932Z,14.30
2022-08-17T00:16:50.993Z,15.90
2022-08-17T00:19:26.781Z,13.70
2022-08-17T00:22:32.410Z,14.80
2022-08-17T00:24:46.284Z,13.10
2022-08-17T00:27:14.509Z,14.10
2022-08-17T00:29:42.644Z,13.50
2022-08-17T00:33:16.011Z,13.20
2022-08-17T00:34:59.586Z,14.10
2022-08-17T00:37:27.745Z,14.30
2022-08-17T00:39:55.850Z,14.50
2022-08-17T00:42:27.588Z,14.80
2022-08-17T00:44:59.304Z,13.90
2022-08-17T00:47:27.546Z,13.80
2022-08-17T00:49:55.900Z,13.20
2022-08-17T00:52:30.554Z,12.40
2022-08-17T00:54:59.833Z,11.80
2022-08-17T00:57:39.506Z,11.40
2022-08-17T01:00:28.236Z,10.10
2022-08-17T01:03:02.291Z,9.90
2022-08-17T01:05:33.309Z,9.70
2022-08-17T01:08:02.709Z,9.30
2022-08-17T01:10:58.624Z,9.90
2022-08-17T01:13:28.762Z,10.50
2022-08-17T01:16:07.474Z,9.50
2022-08-17T01:18:36.271Z,9.10
2022-08-17T01:21:11.463Z,9.80
2022-08-17T01:23:42.202Z,9.20
2022-08-17T01:26:10.591Z,9.50
2022-08-17T01:28:53.778Z,9.90
2022-08-17T01:31:28.836Z,10.00
2022-08-17T01:34:00.607Z,10.70
2022-08-17T01:36:30.705Z,10.80
2022-08-17T01:39:00.204Z,10.40
2022-08-17T01:41:28.623Z,10.20
2022-08-17T01:44:06.451Z,11.50
2022-08-17T01:46:37.044Z,10.70
2022-08-17T01:49:10.876Z,9.90
2022-08-17T01:51:39.767Z,9.90
2022-08-17T01:54:13.737Z,10.70
2022-08-17T01:56:47.217Z,11.00
2022-08-17T01:59:18.477Z,10.40
2022-08-17T02:01:47.159Z,10.80
2022-08-17T02:04:15.443Z,11.50
2022-08-17T02:06:52.643Z,11.70
2022-08-17T02:09:26.056Z,11.50
2022-08-17T02:11:58.591Z,12.10
2022-08-17T02:14:27.169Z,11.10
2022-08-17T02:16:56.178Z,11.40
2022-08-17T02:19:24.359Z,11.50
2022-08-17T02:21:54.067Z,11.60
2022-08-17T02:24:58.378Z,12.50
2022-08-17T02:27:15.687Z,12.80
2022-08-17T02:29:43.856Z,12.40
2022-08-17T02:32:20.879Z,11.70
2022-08-17T02:34:56.995Z,13.10
2022-08-17T02:37:27.134Z,14.30
2022-08-17T02:39:59.558Z,15.00
2022-08-17T02:42:34.510Z,15.90
2022-08-17T02:45:04.396Z,16.60
2022-08-17T02:47:32.659Z,15.50
2022-08-17T02:50:00.974Z,16.50
2022-08-17T02:52:43.611Z,16.40
2022-08-17T02:55:17.410Z,17.00
2022-08-17T02:57:45.891Z,16.20
2022-08-17T03:00:23.307Z,16.00
2022-08-17T03:02:52.429Z,15.60
2022-08-17T03:05:22.933Z,15.10
2022-08-17T03:07:52.495Z,14.30
2022-08-17T03:10:21.634Z,14.30
2022-08-17T03:12:50.736Z,14.40
2022-08-17T03:15:33.538Z,14.10
2022-08-17T03:18:02.410Z,14.70
2022-08-17T03:20:32.440Z,14.60
2022-08-17T03:23:02.740Z,13.90
2022-08-17T03:25:36.740Z,15.00
2022-08-17T03:28:07.613Z,15.00
2022-08-17T03:30:35.893Z,14.90
2022-08-17T03:33:06.080Z,14.50
2022-08-17T03:35:36.757Z,14.20
2022-08-17T03:38:05.502Z,15.00
2022-08-17T03:40:55.530Z,14.50
2022-08-17T03:43:23.297Z,15.10
2022-08-17T03:46:27.221Z,14.40
2022-08-17T03:49:16.758Z,15.20
2022-08-17T03:52:03.528Z,15.30
2022-08-17T03:54:50.308Z,14.70
2022-08-17T03:57:19.336Z,15.50
2022-08-17T03:59:47.983Z,16.90
2022-08-17T04:02:30.179Z,16.50
2022-08-17T04:04:59.124Z,17.50
2022-08-17T04:07:30.551Z,16.50
2022-08-17T04:09:59.536Z,16.60
2022-08-17T04:12:32.105Z,17.30
2022-08-17T04:15:00.419Z,18.10
2022-08-17T04:17:29.694Z,20.10
2022-08-17T04:19:57.985Z,18.90
2022-08-17T04:22:30.099Z,19.40
2022-08-17T04:25:01.595Z,22.30
2022-08-17T04:27:29.791Z,21.40
2022-08-17T04:29:58.818Z,21.40
2022-08-17T04:33:00.674Z,23.30
2022-08-17T04:35:22.533Z,23.20
2022-08-17T04:37:52.100Z,22.40
2022-08-17T04:40:40.406Z,24.60
2022-08-17T04:43:15.447Z,25.30
2022-08-17T04:45:55.686Z,26.00
2022-08-17T04:48:36.486Z,26.20
2022-08-17T04:51:10.600Z,27.40
2022-08-17T04:53:41.802Z,27.50
2022-08-17T04:56:11.879Z,26.80
2022-08-17T04:58:47.949Z,25.40
2022-08-17T05:01:23.970Z,24.30
2022-08-17T05:04:02.302Z,24.70
2022-08-17T05:06:50.263Z,22.50
2022-08-17T05:09:19.132Z,23.40
2022-08-17T05:11:47.722Z,22.30
2022-08-17T05:14:16.140Z,22.50
2022-08-17T05:16:45.883Z,23.60
2022-08-17T05:19:14.150Z,24.50
2022-08-17T05:21:42.393Z,23.00
2022-08-17T05:24:35.381Z,22.80
2022-08-17T05:27:02.613Z,24.30
2022-08-17T05:29:35.527Z,25.30
2022-08-17T05:32:38.581Z,25.70
2022-08-17T05:35:05.906Z,24.10
2022-08-17T05:37:34.008Z,24.90
2022-08-17T05:40:02.494Z,23.60
2022-08-17T05:42:30.681Z,25.50
2022-08-17T05:44:59.006Z,22.90
2022-08-17T05:47:28.403Z,21.90
2022-08-17T05:49:57.595Z,20.80
2022-08-17T05:52:43.130Z,20.30
2022-08-17T05:55:28.896Z,19.00
2022-08-17T05:58:00.231Z,19.60
2022-08-17T06:00:42.111Z,19.20
2022-08-17T06:03:27.908Z,20.10
2022-08-17T06:05:58.761Z,20.70
2022-08-17T06:08:51.499Z,20.30
2022-08-17T06:11:37.327Z,18.40
2022-08-17T06:14:31.220Z,19.00
2022-08-17T06:17:04.880Z,17.80
2022-08-17T06:19:43.646Z,18.60
2022-08-17T06:22:15.574Z,18.90
2022-08-17T06:24:51.604Z,17.40
2022-08-17T06:27:54.330Z,17.20
2022-08-17T06:30:29.161Z,15.80
2022-08-17T06:33:26.171Z,17.40
2022-08-17T06:36:10.356Z,16.10
2022-08-17T06:38:51.776Z,14.10
2022-08-17T06:41:30.071Z,14.00
2022-08-17T06:44:50.205Z,14.60
2022-08-17T06:47:28.646Z,15.70
2022-08-17T06:50:18.979Z,15.80
2022-08-17T06:53:09.058Z,15.70
2022-08-17T06:55:56.064Z,14.80
2022-08-17T06:58:29.841Z,14.10
2022-08-17T07:01:04.707Z,14.30
2022-08-17T07:06:28.759Z,15.40
2022-08-17T07:09:23.479Z,13.00
2022-08-17T07:12:10.373Z,12.70
2022-08-17T07:14:51.987Z,12.80
2022-08-17T07:17:46.841Z,13.10
2022-08-17T07:20:20.714Z,13.40
2022-08-17T07:22:59.587Z,14.00
2022-08-17T07:25:30.999Z,15.40
2022-08-17T07:28:05.302Z,13.20
2022-08-17T07:30:47.508Z,13.80
2022-08-17T07:33:20.711Z,12.70
2022-08-17T07:35:50.169Z,12.30
2022-08-17T07:38:31.279Z,12.90
2022-08-17T07:41:06.305Z,13.00
2022-08-17T07:43:38.114Z,12.40
2022-08-17T07:46:34.136Z,12.90
2022-08-17T07:49:07.585Z,13.10
2022-08-17T07:51:43.891Z,12.20
2022-08-17T07:54:22.577Z,13.20
2022-08-17T07:56:53.716Z,13.70
2022-08-17T07:59:34.908Z,13.00
2022-08-17T08:02:17.371Z,14.20
2022-08-17T08:05:46.712Z,13.70
2022-08-17T08:08:29.258Z,13.70
2022-08-17T08:11:06.358Z,12.40
2022-08-17T08:13:42.442Z,13.00
2022-08-17T08:16:27.715Z,12.20
2022-08-17T08:19:00.851Z,12.40
2022-08-17T08:21:51.521Z,12.70
2022-08-17T08:24:38.602Z,11.80
2022-08-17T08:27:22.406Z,10.90
2022-08-17T08:29:50.546Z,11.10
2022-08-17T08:32:37.378Z,10.40
2022-08-17T08:35:34.407Z,11.70
2022-08-17T08:38:30.955Z,11.00
2022-08-17T08:41:13.141Z,11.20
2022-08-17T08:44:03.869Z,11.80
2022-08-17T08:47:02.323Z,12.80
2022-08-17T08:50:05.835Z,13.90
2022-08-17T08:52:46.447Z,14.30
2022-08-17T08:55:45.233Z,13.90
2022-08-17T08:58:32.050Z,13.70
2022-08-17T09:01:18.505Z,14.00
2022-08-17T09:04:24.288Z,15.20
2022-08-17T09:07:08.487Z,14.20
2022-08-17T09:09:48.452Z,13.60
2022-08-17T09:12:45.669Z,13.70
2022-08-17T09:15:48.242Z,13.90
2022-08-17T09:19:02.377Z,12.70
2022-08-17T09:21:48.197Z,12.40
2022-08-17T09:24:26.040Z,12.60
2022-08-17T09:27:16.291Z,12.00
2022-08-17T09:29:51.647Z,12.40
2022-08-17T09:32:34.317Z,12.10
2022-08-17T09:35:12.437Z,12.00
2022-08-17T09:38:07.031Z,12.80
2022-08-17T09:41:07.093Z,13.40
2022-08-17T09:43:47.155Z,14.40
2022-08-17T09:46:31.998Z,13.00
2022-08-17T09:49:05.862Z,13.30
2022-08-17T09:51:43.896Z,10.70
2022-08-17T09:54:41.769Z,10.80
2022-08-17T09:57:31.659Z,9.10
2022-08-17T10:00:36.709Z,10.00
2022-08-17T10:03:28.369Z,10.80
2022-08-17T10:06:22.037Z,10.10
2022-08-17T10:09:27.390Z,10.80
2022-08-17T10:12:19.966Z,10.70
2022-08-17T10:15:14.665Z,11.80
2022-08-17T10:17:45.404Z,10.20
2022-08-17T10:20:42.964Z,10.60
2022-08-17T10:23:37.110Z,10.80
2022-08-17T10:26:13.420Z,10.10
2022-08-17T10:29:09.604Z,11.10
2022-08-17T10:31:42.695Z,11.20
2022-08-17T10:34:49.479Z,10.90
2022-08-17T10:37:43.591Z,10.40
2022-08-17T10:40:51.775Z,10.50
2022-08-17T10:44:37.906Z,10.80
2022-08-17T10:47:19.545Z,10.10
2022-08-17T10:49:53.760Z,8.50
2022-08-17T10:52:28.316Z,9.00
2022-08-17T10:54:58.447Z,8.50
2022-08-17T10:57:27.953Z,8.90
2022-08-17T10:59:59.228Z,9.00
2022-08-17T11:02:38.630Z,9.30
2022-08-17T11:05:20.876Z,8.80
2022-08-17T11:08:15.494Z,8.00
2022-08-17T11:10:49.945Z,7.50
2022-08-17T11:13:45.069Z,8.00
2022-08-17T11:16:37.820Z,7.20
2022-08-17T11:19:24.419Z,8.50
2022-08-17T11:22:17.636Z,8.20
2022-08-17T11:24:51.374Z,7.90
2022-08-17T11:27:34.177Z,8.80
2022-08-17T11:30:12.140Z,8.50
2022-08-17T11:32:53.013Z,7.90
2022-08-17T11:35:22.890Z,7.50
2022-08-17T11:38:18.467Z,7.90
2022-08-17T11:41:08.057Z,8.10
2022-08-17T11:44:01.910Z,6.80
2022-08-17T11:47:10.806Z,7.60
2022-08-17T11:50:00.494Z,7.30
2022-08-17T11:52:42.269Z,7.20
2022-08-17T11:55:35.741Z,7.70
2022-08-17T11:58:27.178Z,7.40
2022-08-17T12:01:00.948Z,7.40
2022-08-17T12:03:32.137Z,7.80
2022-08-17T12:06:11.270Z,8.20
2022-08-17T12:08:45.457Z,7.70
2022-08-17T12:12:11.811Z,7.10
2022-08-17T12:15:09.605Z,7.50
2022-08-17T12:17:41.524Z,7.40
2022-08-17T12:20:20.171Z,5.90
2022-08-17T12:23:09.533Z,7.20
2022-08-17T12:25:40.150Z,7.80
2022-08-17T12:28:25.321Z,6.80
2022-08-17T12:30:56.472Z,6.60
2022-08-17T12:33:28.547Z,6.00
2022-08-17T12:36:06.621Z,6.20
2022-08-17T12:38:37.240Z,6.50
2022-08-17T12:41:26.059Z,6.70
2022-08-17T12:44:13.857Z,6.40
2022-08-17T12:47:07.670Z,5.60
2022-08-17T12:49:39.455Z,6.00
2022-08-17T12:52:19.630Z,6.90
2022-08-17T12:55:07.052Z,6.10
2022-08-17T12:57:47.461Z,6.60
2022-08-17T13:00:18.665Z,6.40
2022-08-17T13:02:59.759Z,7.00
2022-08-17T13:05:41.281Z,7.10
2022-08-17T13:08:28.626Z,6.80
2022-08-17T13:11:01.038Z,7.30
2022-08-17T13:13:35.278Z,6.00
2022-08-17T13:16:16.651Z,7.50
2022-08-17T13:18:55.684Z,7.60
2022-08-17T13:21:30.680Z,6.80
2022-08-17T13:24:10.867Z,7.20
2022-08-17T13:26:50.812Z,7.30
2022-08-17T13:29:19.530Z,6.70
2022-08-17T13:31:52.876Z,6.80
2022-08-17T13:34:26.714Z,7.30
2022-08-17T13:37:25.548Z,6.70
2022-08-17T13:40:10.161Z,7.30
2022-08-17T13:42:51.620Z,8.60
2022-08-17T13:45:34.985Z,7.60
2022-08-17T13:48:24.869Z,8.40
2022-08-17T13:50:55.821Z,7.60
2022-08-17T13:53:26.157Z,8.40
2022-08-17T13:55:58.596Z,8.00
2022-08-17T13:58:34.383Z,8.90
2022-08-17T14:01:33.310Z,8.00
2022-08-17T14:04:17.123Z,8.00
2022-08-17T14:07:04.932Z,8.90
2022-08-17T14:09:39.964Z,8.60
2022-08-17T14:12:15.453Z,8.80
2022-08-17T14:14:46.115Z,7.90
2022-08-17T14:17:14.179Z,9.30
2022-08-17T14:19:42.444Z,9.10
2022-08-17T14:22:23.768Z,9.10
2022-08-17T14:24:52.110Z,9.20
2022-08-17T14:27:21.517Z,8.80
2022-08-17T14:29:50.301Z,9.40
2022-08-17T14:32:23.895Z,9.60
2022-08-17T14:34:55.090Z,9.20
2022-08-17T14:37:26.488Z,10.30
2022-08-17T14:40:00.128Z,9.60
2022-08-17T14:42:32.699Z,9.40
2022-08-17T14:45:06.615Z,9.50
2022-08-17T14:47:54.714Z,9.40
2022-08-17T14:50:24.010Z,10.40
2022-08-17T14:52:52.484Z,9.60
2022-08-17T14:55:20.882Z,9.00
2022-08-17T14:57:49.765Z,9.80
2022-08-17T15:00:18.343Z,9.20
2022-08-17T15:02:56.107Z,10.00
2022-08-17T15:05:27.203Z,9.20
2022-08-17T15:07:55.999Z,9.60
2022-08-17T15:10:25.905Z,9.90
2022-08-17T15:12:54.645Z,9.80
2022-08-17T15:15:23.967Z,9.60
2022-08-17T15:17:52.189Z,10.60
2022-08-17T15:20:25.103Z,11.00
2022-08-17T15:22:55.693Z,11.00
2022-08-17T15:25:27.666Z,10.70
2022-08-17T15:27:56.542Z,10.70
2022-08-17T15:30:25.999Z,10.10
2022-08-17T15:32:56.843Z,11.30
2022-08-17T15:35:29.528Z,11.40
2022-08-17T15:38:10.631Z,11.70
2022-08-17T15:40:43.746Z,11.20
2022-08-17T15:43:16.037Z,10.20
2022-08-17T15:45:59.707Z,10.40
2022-08-17T15:48:41.582Z,10.00
2022-08-17T15:51:13.768Z,8.90
2022-08-17T15:53:44.636Z,9.30
2022-08-17T15:56:15.091Z,10.20
2022-08-17T15:58:44.878Z,9.90
2022-08-17T16:01:18.440Z,10.60
2022-08-17T16:04:05.123Z,12.40
2022-08-17T16:06:35.429Z,11.10
2022-08-17T16:09:04.190Z,9.40
2022-08-17T16:11:32.266Z,8.60
2022-08-17T16:14:00.500Z,9.00
2022-08-17T16:16:31.370Z,8.20
2022-08-17T16:18:59.578Z,10.60
2022-08-17T16:21:29.693Z,9.40
2022-08-17T16:24:13.699Z,9.40
2022-08-17T16:26:44.151Z,9.50
2022-08-17T16:29:12.453Z,10.90
2022-08-17T16:31:41.974Z,10.30
2022-08-17T16:34:17.717Z,9.20
2022-08-17T16:36:54.836Z,9.40
2022-08-17T16:39:29.375Z,9.30
2022-08-17T16:41:57.819Z,10.00
2022-08-17T16:44:29.115Z,9.80
2022-08-17T16:46:58.597Z,9.50
2022-08-17T16:49:36.670Z,9.30
2022-08-17T16:52:10.345Z,10.30
2022-08-17T16:54:43.801Z,9.90
2022-08-17T16:57:14.588Z,9.60
2022-08-17T16:59:47.809Z,9.60
2022-08-17T17:02:30.685Z,10.80
2022-08-17T17:05:14.158Z,9.00
2022-08-17T17:07:51.187Z,10.80
2022-08-17T17:10:24.321Z,10.00
2022-08-17T17:13:01.586Z,10.30
2022-08-17T17:15:53.711Z,11.50
2022-08-17T17:18:30.621Z,11.60
2022-08-17T17:21:01.281Z,11.30
2022-08-17T17:23:46.178Z,11.70
2022-08-17T17:26:33.163Z,11.30
2022-08-17T17:29:28.267Z,11.70
2022-08-17T17:32:09.525Z,12.40
2022-08-17T17:34:41.858Z,11.60
2022-08-17T17:37:19.860Z,11.60
2022-08-17T17:39:55.645Z,10.60
2022-08-17T17:42:28.930Z,11.80
2022-08-17T17:45:02.963Z,11.40
2022-08-17T17:47:33.005Z,11.80
2022-08-17T17:50:03.417Z,10.90
2022-08-17T17:52:41.010Z,11.00
2022-08-17T17:55:44.997Z,11.40
2022-08-17T17:58:27.775Z,10.70
2022-08-17T18:01:08.844Z,12.20
2022-08-17T18:03:59.313Z,11.70
2022-08-17T18:06:33.456Z,12.40
2022-08-17T18:09:21.403Z,12.70
2022-08-17T18:12:10.960Z,13.00
2022-08-17T18:15:21.555Z,13.00
2022-08-17T18:18:00.807Z,12.70
2022-08-17T18:20:43.129Z,12.70
2022-08-17T18:23:14.823Z,13.30
2022-08-17T18:25:45.176Z,12.30
2022-08-17T18:28:31.763Z,13.20
2022-08-17T18:31:18.152Z,12.90
2022-08-17T18:33:49.602Z,13.20
2022-08-17T18:36:37.007Z,13.10
2022-08-17T18:39:16.898Z,12.00
2022-08-17T18:41:50.519Z,12.80
2022-08-17T18:44:26.574Z,12.20
2022-08-17T18:47:27.347Z,12.80
2022-08-17T18:50:18.388Z,13.90
2022-08-17T18:52:48.693Z,12.10
2022-08-17T18:55:21.459Z,13.40
2022-08-17T18:57:52.731Z,13.50
2022-08-17T19:00:26.563Z,14.90
2022-08-17T19:03:14.672Z,12.80
2022-08-17T19:05:53.430Z,14.00
2022-08-17T19:08:34.321Z,13.90
2022-08-17T19:11:34.824Z,14.60
2022-08-17T19:14:10.731Z,13.50
2022-08-17T19:17:04.840Z,13.80
2022-08-17T19:19:58.295Z,14.60
2022-08-17T19:22:53.696Z,13.90
2022-08-17T19:25:27.532Z,14.90
2022-08-17T19:28:12.683Z,13.70
2022-08-17T19:30:57.177Z,14.20
2022-08-17T19:33:26.245Z,14.90
2022-08-17T19:36:14.352Z,14.50
2022-08-17T19:38:53.055Z,19.50
2022-08-17T19:41:34.004Z,26.90
2022-08-17T19:44:33.773Z,31.50
2022-08-17T19:47:43.073Z,16.10
2022-08-17T19:50:16.566Z,16.10
2022-08-17T19:52:47.398Z,14.40
2022-08-17T19:55:35.916Z,13.40
2022-08-17T19:58:12.919Z,13.80
2022-08-17T20:00:51.327Z,14.40
2022-08-17T20:04:03.066Z,13.60
2022-08-17T20:06:34.272Z,13.10
2022-08-17T20:09:14.341Z,12.70
2022-08-17T20:11:49.858Z,12.90
2022-08-17T20:14:23.803Z,13.40
2022-08-17T20:16:52.461Z,14.10
2022-08-17T20:19:49.228Z,14.30
2022-08-17T20:22:23.694Z,15.30
2022-08-17T20:25:01.727Z,13.20
2022-08-17T20:27:34.626Z,13.50
2022-08-17T20:30:12.037Z,12.50
2022-08-17T20:32:52.066Z,12.80
2022-08-17T20:35:27.155Z,11.80
2022-08-17T20:38:02.042Z,12.70
2022-08-17T20:41:04.204Z,11.90
2022-08-17T20:43:35.574Z,11.70
2022-08-17T20:46:15.557Z,12.10
2022-08-17T20:48:49.891Z,12.30
2022-08-17T20:51:32.596Z,12.00
2022-08-17T20:54:25.790Z,12.20
2022-08-17T20:56:57.573Z,12.40
2022-08-17T20:59:26.081Z,12.40
2022-08-17T21:02:08.939Z,13.10
2022-08-17T21:05:00.282Z,13.00
2022-08-17T21:07:52.281Z,12.70
2022-08-17T21:10:26.060Z,12.20
2022-08-17T21:13:23.035Z,13.30
2022-08-17T21:16:24.665Z,13.00
2022-08-17T21:18:59.424Z,13.30
2022-08-17T21:21:47.134Z,11.90
2022-08-17T21:24:31.511Z,11.90
2022-08-17T21:27:12.308Z,11.60
2022-08-17T21:30:06.711Z,11.50
2022-08-17T21:32:42.004Z,11.30
2022-08-17T21:35:47.313Z,12.10
2022-08-17T21:38:19.601Z,11.90
2022-08-17T21:40:52.717Z,11.40
2022-08-17T21:43:25.764Z,10.90
2022-08-17T21:45:57.736Z,11.70
2022-08-17T21:48:27.536Z,12.00
2022-08-17T21:51:06.751Z,12.80
2022-08-17T21:53:39.998Z,11.70
2022-08-17T21:56:09.935Z,11.20
2022-08-17T21:58:46.611Z,12.60
2022-08-17T22:01:34.564Z,12.30
2022-08-17T22:04:42.107Z,12.40
2022-08-17T22:07:13.425Z,12.10
2022-08-17T22:09:48.803Z,11.70
2022-08-17T22:12:27.242Z,12.60
2022-08-17T22:15:01.791Z,12.60
2022-08-17T22:17:40.432Z,13.10
2022-08-17T22:20:15.986Z,12.50
2022-08-17T22:23:05.397Z,13.00
2022-08-17T22:25:37.369Z,13.70
2022-08-17T22:28:08.829Z,14.50
2022-08-17T22:30:38.413Z,13.30
2022-08-17T22:33:43.702Z,14.50
2022-08-17T22:36:11.824Z,13.60
2022-08-17T22:38:41.705Z,14.50
2022-08-17T22:41:32.035Z,15.00
2022-08-17T22:44:37.890Z,15.50
2022-08-17T22:47:11.320Z,15.50
2022-08-17T22:49:53.368Z,14.90
2022-08-17T22:52:32.489Z,15.20
2022-08-17T22:55:32.467Z,15.70
2022-08-17T22:58:20.177Z,15.60
2022-08-17T23:00:49.629Z,15.50
2022-08-17T23:03:28.128Z,16.40
2022-08-17T23:06:09.679Z,16.60
2022-08-17T23:08:55.010Z,15.90
2022-08-17T23:11:42.994Z,15.80
2022-08-17T23:14:15.796Z,15.40
2022-08-17T23:16:43.931Z,15.80
2022-08-17T23:19:15.408Z,16.20
2022-08-17T23:21:45.019Z,15.60
2022-08-17T23:24:21.498Z,15.40
2022-08-17T23:26:49.742Z,14.80
2022-08-17T23:29:20.546Z,16.20
2022-08-17T23:31:51.270Z,15.80
2022-08-17T23:34:19.721Z,16.10
2022-08-17T23:36:52.979Z,15.20
2022-08-17T23:39:24.764Z,15.50
2022-08-17T23:41:59.095Z,15.30
2022-08-17T23:44:28.971Z,15.30
2022-08-17T23:46:57.461Z,15.20
2022-08-17T23:49:25.740Z,15.10
2022-08-17T23:51:54.784Z,16.40
2022-08-17T23:54:29.963Z,16.50
2022-08-17T23:56:58.011Z,17.00
2022-08-17T23:59:27.665Z,14.40
